THY8RA LTAC-LTAJ
Flight info
| Callsign | THY8RA |
|---|---|
| Flight time | 0h 52m |
| Altitude | 35000 |
| Route | YUCEL UA17 BELSU UL605 RATSI UA17 REMPO L605 ASBOM |
| Aircraft | B738/M-SDE2E3FGHIRWXY/LB1 |
Departure
| Time | 2026-05-08 20:16 |
|---|---|
| Airport | Esenboğa International Airport (LTAC) |
Arrival
| Time | 2026-05-08 21:09 |
|---|---|
| Airport | Gaziantep Oğuzeli International Airport (LTAJ) |
| Time | Latitude | Longitude | Altitude | Speed | Heading |
|---|---|---|---|---|---|
| 2026-05-08 19:42 | 40.11606 | 32.99121 | 3141 ft | 0 kts | 146° |
| 2026-05-08 20:03 | 40.11617 | 32.99111 | 3141 ft | 2 kts | 146° |
| 2026-05-08 20:03 | 40.11629 | 32.99100 | 3141 ft | 2 kts | 146° |
| 2026-05-08 20:04 | 40.11639 | 32.99091 | 3141 ft | 0 kts | 146° |
| 2026-05-08 20:04 | 40.11648 | 32.99083 | 3141 ft | 2 kts | 125° |
| 2026-05-08 20:04 | 40.11653 | 32.99065 | 3141 ft | 2 kts | 96° |
| 2026-05-08 20:04 | 40.11652 | 32.99047 | 3141 ft | 2 kts | 66° |
| 2026-05-08 20:05 | 40.11647 | 32.99038 | 3141 ft | 1 kts | 51° |
| 2026-05-08 20:05 | 40.11645 | 32.99034 | 3141 ft | 0 kts | 54° |
| 2026-05-08 20:07 | 40.11650 | 32.99043 | 3141 ft | 2 kts | 59° |
| 2026-05-08 20:07 | 40.11673 | 32.99094 | 3141 ft | 9 kts | 56° |
| 2026-05-08 20:08 | 40.11738 | 32.99121 | 3141 ft | 14 kts | 336° |
| 2026-05-08 20:08 | 40.11803 | 32.99048 | 3141 ft | 12 kts | 318° |
| 2026-05-08 20:08 | 40.11892 | 32.99086 | 3141 ft | 19 kts | 38° |
| 2026-05-08 20:08 | 40.12021 | 32.99206 | 3141 ft | 22 kts | 37° |
| 2026-05-08 20:09 | 40.12138 | 32.99320 | 3141 ft | 25 kts | 36° |
| 2026-05-08 20:09 | 40.12203 | 32.99382 | 3141 ft | 5 kts | 36° |
| 2026-05-08 20:09 | 40.12257 | 32.99435 | 3141 ft | 14 kts | 36° |
| 2026-05-08 20:09 | 40.12363 | 32.99535 | 3141 ft | 18 kts | 36° |
| 2026-05-08 20:10 | 40.12446 | 32.99614 | 3141 ft | 16 kts | 36° |
| 2026-05-08 20:10 | 40.12541 | 32.99704 | 3141 ft | 14 kts | 36° |
| 2026-05-08 20:10 | 40.12644 | 32.99803 | 3141 ft | 22 kts | 36° |
| 2026-05-08 20:10 | 40.12769 | 32.99922 | 3141 ft | 20 kts | 35° |
| 2026-05-08 20:11 | 40.12868 | 33.00016 | 3141 ft | 20 kts | 37° |
| 2026-05-08 20:11 | 40.12998 | 33.00138 | 3141 ft | 26 kts | 35° |
| 2026-05-08 20:11 | 40.13133 | 33.00267 | 3141 ft | 22 kts | 37° |
| 2026-05-08 20:11 | 40.13264 | 33.00394 | 3141 ft | 22 kts | 36° |
| 2026-05-08 20:12 | 40.13396 | 33.00520 | 3141 ft | 22 kts | 36° |
| 2026-05-08 20:12 | 40.13529 | 33.00644 | 3141 ft | 25 kts | 36° |
| 2026-05-08 20:12 | 40.13668 | 33.00780 | 3141 ft | 26 kts | 37° |
| 2026-05-08 20:12 | 40.13820 | 33.00925 | 3141 ft | 23 kts | 36° |
| 2026-05-08 20:13 | 40.13951 | 33.01048 | 3141 ft | 20 kts | 35° |
| 2026-05-08 20:13 | 40.14080 | 33.01035 | 3141 ft | 22 kts | 311° |
| 2026-05-08 20:13 | 40.14138 | 33.00881 | 3141 ft | 19 kts | 307° |
| 2026-05-08 20:13 | 40.14189 | 33.00794 | 3141 ft | 12 kts | 308° |
| 2026-05-08 20:14 | 40.14202 | 33.00680 | 3141 ft | 13 kts | 231° |
| 2026-05-08 20:14 | 40.14186 | 33.00663 | 3141 ft | 0 kts | 218° |
| 2026-05-08 20:15 | 40.14005 | 33.00491 | 3141 ft | 68 kts | 216° |
| 2026-05-08 20:15 | 40.13438 | 32.99950 | 3141 ft | 132 kts | 216° |
| 2026-05-08 20:16 | 40.12546 | 32.99101 | 3312 ft | 170 kts | 216° |
| 2026-05-08 20:16 | 40.11620 | 32.98216 | 3991 ft | 172 kts | 217° |
| 2026-05-08 20:16 | 40.10636 | 32.97259 | 4584 ft | 181 kts | 217° |
| 2026-05-08 20:16 | 40.09600 | 32.96263 | 5141 ft | 195 kts | 217° |
| 2026-05-08 20:17 | 40.08468 | 32.95192 | 5708 ft | 209 kts | 216° |
| 2026-05-08 20:17 | 40.07269 | 32.94060 | 6264 ft | 224 kts | 217° |
| 2026-05-08 20:17 | 40.05996 | 32.92857 | 6810 ft | 239 kts | 216° |
| 2026-05-08 20:17 | 40.04626 | 32.91562 | 7298 ft | 259 kts | 216° |
| 2026-05-08 20:18 | 40.03175 | 32.90191 | 8077 ft | 267 kts | 216° |
| 2026-05-08 20:18 | 40.01684 | 32.88784 | 8693 ft | 282 kts | 216° |
| 2026-05-08 20:18 | 40.00109 | 32.87297 | 9497 ft | 290 kts | 216° |
| 2026-05-08 20:18 | 39.98483 | 32.85760 | 10390 ft | 294 kts | 216° |
| 2026-05-08 20:19 | 39.96832 | 32.84202 | 11002 ft | 308 kts | 216° |
| 2026-05-08 20:19 | 39.95045 | 32.82514 | 11583 ft | 324 kts | 216° |
| 2026-05-08 20:19 | 39.93059 | 32.81044 | 12120 ft | 341 kts | 201° |
| 2026-05-08 20:19 | 39.90660 | 32.80479 | 12682 ft | 358 kts | 181° |
| 2026-05-08 20:20 | 39.88224 | 32.80941 | 13363 ft | 367 kts | 166° |
| 2026-05-08 20:20 | 39.85860 | 32.82135 | 13648 ft | 370 kts | 153° |
| 2026-05-08 20:20 | 39.83802 | 32.84150 | 13708 ft | 371 kts | 133° |
| 2026-05-08 20:20 | 39.82434 | 32.87020 | 14158 ft | 382 kts | 111° |
| 2026-05-08 20:21 | 39.81744 | 32.90289 | 15254 ft | 379 kts | 101° |
| 2026-05-08 20:21 | 39.81532 | 32.93618 | 15986 ft | 385 kts | 86° |
| 2026-05-08 20:21 | 39.81913 | 32.97098 | 16783 ft | 389 kts | 78° |
| 2026-05-08 20:21 | 39.82532 | 33.00535 | 17538 ft | 394 kts | 75° |
| 2026-05-08 20:22 | 39.83164 | 33.03990 | 18266 ft | 398 kts | 81° |
| 2026-05-08 20:22 | 39.83069 | 33.07601 | 18915 ft | 405 kts | 103° |
| 2026-05-08 20:22 | 39.82068 | 33.11013 | 19591 ft | 409 kts | 118° |
| 2026-05-08 20:22 | 39.81129 | 33.13128 | 20035 ft | 412 kts | 122° |
| 2026-05-08 20:23 | 39.78968 | 33.17304 | 20896 ft | 418 kts | 126° |
| 2026-05-08 20:23 | 39.77303 | 33.20375 | 21546 ft | 423 kts | 126° |
| 2026-05-08 20:23 | 39.75586 | 33.23563 | 22209 ft | 426 kts | 125° |
| 2026-05-08 20:23 | 39.73898 | 33.26756 | 22799 ft | 432 kts | 124° |
| 2026-05-08 20:24 | 39.72204 | 33.30019 | 23436 ft | 435 kts | 124° |
| 2026-05-08 20:24 | 39.70528 | 33.33292 | 23978 ft | 441 kts | 123° |
| 2026-05-08 20:24 | 39.68831 | 33.36642 | 24513 ft | 446 kts | 123° |
| 2026-05-08 20:24 | 39.67140 | 33.40002 | 25099 ft | 450 kts | 123° |
| 2026-05-08 20:25 | 39.65403 | 33.43464 | 25611 ft | 455 kts | 123° |
| 2026-05-08 20:25 | 39.63676 | 33.46914 | 26151 ft | 458 kts | 123° |
| 2026-05-08 20:25 | 39.61959 | 33.50344 | 26732 ft | 460 kts | 123° |
| 2026-05-08 20:25 | 39.60214 | 33.53834 | 27515 ft | 457 kts | 123° |
| 2026-05-08 20:26 | 39.58497 | 33.57270 | 28215 ft | 455 kts | 123° |
| 2026-05-08 20:26 | 39.56705 | 33.60663 | 28823 ft | 455 kts | 126° |
| 2026-05-08 20:26 | 39.54797 | 33.63916 | 29339 ft | 457 kts | 128° |
| 2026-05-08 20:26 | 39.52804 | 33.67125 | 29864 ft | 457 kts | 130° |
| 2026-05-08 20:27 | 39.50780 | 33.70316 | 30474 ft | 456 kts | 130° |
| 2026-05-08 20:27 | 39.48781 | 33.73450 | 31050 ft | 454 kts | 130° |
| 2026-05-08 20:27 | 39.46760 | 33.76617 | 31365 ft | 459 kts | 130° |
| 2026-05-08 20:27 | 39.44708 | 33.79833 | 31614 ft | 466 kts | 130° |
| 2026-05-08 20:28 | 39.42612 | 33.83088 | 31888 ft | 472 kts | 131° |
| 2026-05-08 20:28 | 39.40500 | 33.86342 | 32345 ft | 472 kts | 131° |
| 2026-05-08 20:28 | 39.38405 | 33.89562 | 32978 ft | 468 kts | 131° |
| 2026-05-08 20:28 | 39.36301 | 33.92803 | 33206 ft | 472 kts | 131° |
| 2026-05-08 20:29 | 39.32135 | 33.99229 | 33230 ft | 465 kts | 131° |
| 2026-05-08 20:29 | 39.27989 | 34.05635 | 33233 ft | 466 kts | 130° |
| 2026-05-08 20:30 | 39.23804 | 34.12095 | 33232 ft | 465 kts | 130° |
| 2026-05-08 20:30 | 39.19644 | 34.18505 | 33228 ft | 467 kts | 130° |
| 2026-05-08 20:31 | 39.15501 | 34.24880 | 33222 ft | 466 kts | 130° |
| 2026-05-08 20:31 | 39.11672 | 34.31655 | 33220 ft | 469 kts | 122° |
| 2026-05-08 20:32 | 39.08025 | 34.38597 | 33222 ft | 470 kts | 128° |
| 2026-05-08 20:32 | 39.03842 | 34.45014 | 33223 ft | 468 kts | 132° |
| 2026-05-08 20:33 | 38.99579 | 34.51302 | 33219 ft | 470 kts | 131° |
| 2026-05-08 20:33 | 38.95344 | 34.57617 | 33218 ft | 470 kts | 131° |
| 2026-05-08 20:34 | 38.91120 | 34.64001 | 33205 ft | 471 kts | 130° |
| 2026-05-08 20:35 | 38.84849 | 34.73556 | 33208 ft | 473 kts | 130° |
| 2026-05-08 20:35 | 38.80631 | 34.80003 | 33222 ft | 472 kts | 131° |
| 2026-05-08 20:36 | 38.76409 | 34.86439 | 33227 ft | 472 kts | 130° |
| 2026-05-08 20:36 | 38.72166 | 34.92900 | 33238 ft | 473 kts | 130° |
| 2026-05-08 20:37 | 38.67955 | 34.99290 | 33252 ft | 476 kts | 130° |
| 2026-05-08 20:37 | 38.63720 | 35.05706 | 33257 ft | 474 kts | 130° |
| 2026-05-08 20:38 | 38.59456 | 35.12161 | 33269 ft | 474 kts | 130° |
| 2026-05-08 20:38 | 38.55228 | 35.18554 | 33270 ft | 474 kts | 130° |
| 2026-05-08 20:39 | 38.50972 | 35.24955 | 33266 ft | 474 kts | 130° |
| 2026-05-08 20:39 | 38.46701 | 35.31241 | 33273 ft | 475 kts | 131° |
| 2026-05-08 20:40 | 38.42339 | 35.37593 | 33284 ft | 477 kts | 131° |
| 2026-05-08 20:40 | 38.38004 | 35.43892 | 33283 ft | 475 kts | 131° |
| 2026-05-08 20:41 | 38.33684 | 35.50156 | 33291 ft | 477 kts | 130° |
| 2026-05-08 20:41 | 38.29320 | 35.56491 | 33293 ft | 478 kts | 130° |
| 2026-05-08 20:42 | 38.24959 | 35.62816 | 33297 ft | 477 kts | 131° |
| 2026-05-08 20:42 | 38.20596 | 35.69123 | 33291 ft | 479 kts | 131° |
| 2026-05-08 20:43 | 38.16182 | 35.75500 | 33291 ft | 480 kts | 131° |
| 2026-05-08 20:43 | 38.11767 | 35.81859 | 33287 ft | 480 kts | 131° |
| 2026-05-08 20:44 | 38.07335 | 35.88235 | 33296 ft | 481 kts | 131° |
| 2026-05-08 20:44 | 38.02927 | 35.94565 | 33287 ft | 482 kts | 131° |
| 2026-05-08 20:45 | 37.98627 | 36.00725 | 33285 ft | 482 kts | 131° |
| 2026-05-08 20:45 | 37.94313 | 36.06892 | 33273 ft | 481 kts | 131° |
| 2026-05-08 20:46 | 37.89897 | 36.13192 | 33005 ft | 481 kts | 131° |
| 2026-05-08 20:46 | 37.88039 | 36.15837 | 32575 ft | 479 kts | 131° |
| 2026-05-08 20:46 | 37.84059 | 36.21498 | 31736 ft | 471 kts | 131° |
| 2026-05-08 20:47 | 37.81921 | 36.24542 | 31227 ft | 467 kts | 131° |
| 2026-05-08 20:47 | 37.79785 | 36.27584 | 30702 ft | 464 kts | 130° |
| 2026-05-08 20:47 | 37.77695 | 36.30561 | 30188 ft | 461 kts | 130° |
| 2026-05-08 20:47 | 37.75576 | 36.33576 | 29664 ft | 458 kts | 130° |
| 2026-05-08 20:48 | 37.73475 | 36.36561 | 29161 ft | 455 kts | 130° |
| 2026-05-08 20:48 | 37.71410 | 36.39493 | 28638 ft | 452 kts | 131° |
| 2026-05-08 20:48 | 37.69349 | 36.42419 | 28131 ft | 449 kts | 131° |
| 2026-05-08 20:48 | 37.67324 | 36.45290 | 27617 ft | 445 kts | 130° |
| 2026-05-08 20:49 | 37.65416 | 36.47994 | 27136 ft | 442 kts | 131° |
| 2026-05-08 20:49 | 37.63425 | 36.50811 | 26631 ft | 439 kts | 131° |
| 2026-05-08 20:49 | 37.61417 | 36.53650 | 26113 ft | 433 kts | 131° |
| 2026-05-08 20:49 | 37.59412 | 36.56483 | 25611 ft | 423 kts | 131° |
| 2026-05-08 20:50 | 37.57480 | 36.59208 | 25123 ft | 414 kts | 131° |
| 2026-05-08 20:50 | 37.55582 | 36.61883 | 24638 ft | 405 kts | 131° |
| 2026-05-08 20:50 | 37.53723 | 36.64502 | 24155 ft | 396 kts | 131° |
| 2026-05-08 20:50 | 37.51921 | 36.67041 | 23695 ft | 387 kts | 131° |
| 2026-05-08 20:51 | 37.50154 | 36.69529 | 23246 ft | 383 kts | 131° |
| 2026-05-08 20:51 | 37.48380 | 36.72043 | 22795 ft | 380 kts | 131° |
| 2026-05-08 20:51 | 37.46636 | 36.74535 | 22346 ft | 378 kts | 131° |
| 2026-05-08 20:51 | 37.44934 | 36.76976 | 21898 ft | 375 kts | 131° |
| 2026-05-08 20:52 | 37.43182 | 36.79487 | 21440 ft | 373 kts | 131° |
| 2026-05-08 20:52 | 37.41489 | 36.81911 | 21006 ft | 370 kts | 131° |
| 2026-05-08 20:52 | 37.39790 | 36.84339 | 20556 ft | 367 kts | 131° |
| 2026-05-08 20:52 | 37.38101 | 36.86749 | 20138 ft | 365 kts | 131° |
| 2026-05-08 20:53 | 37.36407 | 36.89163 | 19673 ft | 363 kts | 131° |
| 2026-05-08 20:53 | 37.34757 | 36.91514 | 19225 ft | 361 kts | 131° |
| 2026-05-08 20:53 | 37.33121 | 36.93840 | 18786 ft | 358 kts | 131° |
| 2026-05-08 20:53 | 37.31477 | 36.96178 | 18375 ft | 354 kts | 131° |
| 2026-05-08 20:54 | 37.29853 | 36.98486 | 17969 ft | 352 kts | 131° |
| 2026-05-08 20:54 | 37.28243 | 37.00772 | 17530 ft | 349 kts | 131° |
| 2026-05-08 20:54 | 37.26628 | 37.03064 | 17112 ft | 347 kts | 131° |
| 2026-05-08 20:54 | 37.25014 | 37.05297 | 16690 ft | 345 kts | 134° |
| 2026-05-08 20:55 | 37.23337 | 37.07407 | 16261 ft | 342 kts | 136° |
| 2026-05-08 20:55 | 37.21599 | 37.09478 | 15848 ft | 340 kts | 136° |
| 2026-05-08 20:55 | 37.19894 | 37.11487 | 15445 ft | 337 kts | 136° |
| 2026-05-08 20:55 | 37.18188 | 37.13509 | 15036 ft | 335 kts | 136° |
| 2026-05-08 20:56 | 37.16503 | 37.15524 | 14613 ft | 333 kts | 136° |
| 2026-05-08 20:56 | 37.14841 | 37.17524 | 14193 ft | 331 kts | 135° |
| 2026-05-08 20:56 | 37.13170 | 37.19544 | 13792 ft | 329 kts | 135° |
| 2026-05-08 20:56 | 37.11579 | 37.21549 | 13376 ft | 327 kts | 130° |
| 2026-05-08 20:57 | 37.10310 | 37.23837 | 13019 ft | 322 kts | 114° |
| 2026-05-08 20:57 | 37.09590 | 37.26407 | 12789 ft | 313 kts | 104° |
| 2026-05-08 20:57 | 37.09095 | 37.28955 | 12563 ft | 308 kts | 101° |
| 2026-05-08 20:57 | 37.08627 | 37.31560 | 12292 ft | 307 kts | 102° |
| 2026-05-08 20:58 | 37.08133 | 37.34155 | 12062 ft | 304 kts | 103° |
| 2026-05-08 20:58 | 37.07616 | 37.36696 | 11767 ft | 301 kts | 103° |
| 2026-05-08 20:58 | 37.07082 | 37.39212 | 11357 ft | 299 kts | 103° |
| 2026-05-08 20:58 | 37.06540 | 37.41720 | 10980 ft | 297 kts | 103° |
| 2026-05-08 20:59 | 37.06003 | 37.44196 | 10615 ft | 295 kts | 103° |
| 2026-05-08 20:59 | 37.05474 | 37.46637 | 10265 ft | 292 kts | 103° |
| 2026-05-08 20:59 | 37.04947 | 37.49071 | 10132 ft | 281 kts | 103° |
| 2026-05-08 20:59 | 37.04447 | 37.51374 | 9976 ft | 273 kts | 103° |
| 2026-05-08 21:00 | 37.03947 | 37.53685 | 9633 ft | 271 kts | 102° |
| 2026-05-08 21:00 | 37.03458 | 37.55946 | 9265 ft | 271 kts | 103° |
| 2026-05-08 21:00 | 37.02967 | 37.58209 | 8895 ft | 269 kts | 103° |
| 2026-05-08 21:00 | 37.02490 | 37.60400 | 8714 ft | 253 kts | 103° |
| 2026-05-08 21:01 | 37.02050 | 37.62415 | 8559 ft | 235 kts | 103° |
| 2026-05-08 21:01 | 37.01633 | 37.64335 | 8361 ft | 222 kts | 103° |
| 2026-05-08 21:01 | 37.01233 | 37.66175 | 8207 ft | 208 kts | 104° |
| 2026-05-08 21:01 | 37.00865 | 37.67865 | 8088 ft | 195 kts | 104° |
| 2026-05-08 21:02 | 37.00514 | 37.69472 | 7951 ft | 185 kts | 104° |
| 2026-05-08 21:02 | 37.00070 | 37.70959 | 7712 ft | 183 kts | 120° |
| 2026-05-08 21:02 | 36.99180 | 37.72059 | 7378 ft | 187 kts | 149° |
| 2026-05-08 21:02 | 36.97963 | 37.72664 | 7079 ft | 186 kts | 165° |
| 2026-05-08 21:03 | 36.96679 | 37.72765 | 6757 ft | 187 kts | 191° |
| 2026-05-08 21:03 | 36.95431 | 37.72316 | 6471 ft | 186 kts | 197° |
| 2026-05-08 21:03 | 36.94176 | 37.71851 | 6182 ft | 184 kts | 195° |
| 2026-05-08 21:03 | 36.92951 | 37.71437 | 5880 ft | 181 kts | 195° |
| 2026-05-08 21:04 | 36.91753 | 37.70925 | 5528 ft | 184 kts | 210° |
| 2026-05-08 21:04 | 36.90918 | 37.69832 | 5317 ft | 167 kts | 249° |
| 2026-05-08 21:04 | 36.90807 | 37.68466 | 5033 ft | 157 kts | 275° |
| 2026-05-08 21:04 | 36.90905 | 37.67137 | 4680 ft | 154 kts | 277° |
| 2026-05-08 21:05 | 36.91068 | 37.65821 | 4260 ft | 154 kts | 281° |
| 2026-05-08 21:05 | 36.91288 | 37.64531 | 4062 ft | 151 kts | 283° |
| 2026-05-08 21:05 | 36.91533 | 37.63238 | 4049 ft | 154 kts | 284° |
| 2026-05-08 21:05 | 36.91792 | 37.61953 | 4015 ft | 153 kts | 284° |
| 2026-05-08 21:06 | 36.92059 | 37.60664 | 3994 ft | 153 kts | 285° |
| 2026-05-08 21:06 | 36.92336 | 37.59355 | 3912 ft | 155 kts | 285° |
| 2026-05-08 21:06 | 36.92610 | 37.58069 | 3724 ft | 153 kts | 285° |
| 2026-05-08 21:06 | 36.92884 | 37.56790 | 3519 ft | 151 kts | 286° |
| 2026-05-08 21:07 | 36.93151 | 37.55548 | 3325 ft | 150 kts | 286° |
| 2026-05-08 21:07 | 36.93417 | 37.54313 | 3132 ft | 148 kts | 286° |
| 2026-05-08 21:07 | 36.93686 | 37.53056 | 2928 ft | 149 kts | 286° |
| 2026-05-08 21:07 | 36.93955 | 37.51806 | 2729 ft | 151 kts | 286° |
| 2026-05-08 21:08 | 36.94229 | 37.50540 | 2511 ft | 149 kts | 286° |
| 2026-05-08 21:08 | 36.94495 | 37.49289 | 2351 ft | 150 kts | 286° |
| 2026-05-08 21:08 | 36.94747 | 37.48138 | 2320 ft | 110 kts | 284° |
| 2026-05-08 21:08 | 36.94892 | 37.47464 | 2320 ft | 55 kts | 286° |
| 2026-05-08 21:09 | 36.94944 | 37.47206 | 2320 ft | 15 kts | 277° |
| 2026-05-08 21:09 | 36.94885 | 37.47134 | 2320 ft | 11 kts | 198° |
| 2026-05-08 21:09 | 36.94823 | 37.47118 | 2320 ft | 7 kts | 167° |
| 2026-05-08 21:09 | 36.94804 | 37.47156 | 2320 ft | 4 kts | 111° |
| 2026-05-08 21:10 | 36.94792 | 37.47193 | 2320 ft | 6 kts | 111° |
| 2026-05-08 21:10 | 36.94774 | 37.47257 | 2320 ft | 9 kts | 109° |
| 2026-05-08 21:10 | 36.94752 | 37.47348 | 2320 ft | 12 kts | 106° |
| 2026-05-08 21:10 | 36.94712 | 37.47430 | 2320 ft | 10 kts | 174° |
| 2026-05-08 21:11 | 36.94671 | 37.47394 | 2320 ft | 7 kts | 267° |
| 2026-05-08 21:11 | 36.94653 | 37.47355 | 2320 ft | 4 kts | 213° |
| 2026-05-08 21:11 | 36.94632 | 37.47345 | 2320 ft | 2 kts | 196° |
| 2026-05-08 21:11 | 36.94619 | 37.47340 | 2320 ft | 1 kts | 197° |
| 2026-05-08 21:12 | 36.94612 | 37.47338 | 2320 ft | 0 kts | 197° |